createdAt,value
2022-10-22T00:02:48.414Z,8.39
2022-10-22T00:12:50.331Z,8.36
2022-10-22T00:32:54.358Z,8.46
2022-10-22T00:42:56.323Z,8.54
2022-10-22T00:52:58.728Z,8.68
2022-10-22T01:03:01.357Z,8.62
2022-10-22T01:13:17.673Z,8.72
2022-10-22T01:23:41.102Z,8.72
2022-10-22T01:33:46.102Z,8.80
2022-10-22T01:43:48.235Z,8.75
2022-10-22T01:53:55.929Z,8.78
2022-10-22T02:04:34.235Z,8.77
2022-10-22T02:14:39.903Z,8.90
2022-10-22T02:24:42.033Z,8.86
2022-10-22T02:34:45.481Z,8.91
2022-10-22T02:44:47.446Z,9.09
2022-10-22T02:54:49.616Z,8.98
2022-10-22T03:04:51.588Z,8.77
2022-10-22T03:14:53.482Z,8.84
2022-10-22T03:25:00.968Z,8.95
2022-10-22T03:35:03.971Z,8.88
2022-10-22T03:45:06.670Z,8.81
2022-10-22T03:55:09.403Z,8.95
2022-10-22T04:05:11.500Z,9.14
2022-10-22T04:15:13.440Z,9.17
2022-10-22T04:25:15.525Z,9.08
2022-10-22T04:35:17.626Z,9.20
2022-10-22T04:45:19.564Z,9.31
2022-10-22T04:55:21.643Z,9.25
2022-10-22T05:05:23.672Z,9.32
2022-10-22T05:15:25.557Z,9.48
2022-10-22T05:25:27.493Z,9.47
2022-10-22T05:35:29.545Z,9.38
2022-10-22T05:45:31.485Z,9.50
2022-10-22T05:55:40.677Z,9.70
2022-10-22T06:05:42.722Z,9.86
2022-10-22T06:15:44.661Z,10.01
2022-10-22T06:25:57.531Z,10.32
2022-10-22T06:36:07.981Z,10.58
2022-10-22T06:46:10.127Z,10.58
2022-10-22T06:56:17.022Z,10.52
2022-10-22T07:06:20.884Z,10.81
2022-10-22T07:16:25.661Z,11.11
2022-10-22T07:26:32.764Z,11.05
2022-10-22T07:36:34.868Z,11.14
2022-10-22T07:46:37.054Z,11.94
2022-10-22T07:56:39.147Z,12.99
2022-10-22T08:06:44.563Z,13.20
2022-10-22T08:16:49.289Z,13.04
2022-10-22T08:26:52.331Z,13.03
2022-10-22T08:36:54.334Z,12.99
2022-10-22T08:47:23.927Z,12.88
2022-10-22T08:57:35.803Z,13.07
2022-10-22T09:07:43.816Z,13.79
2022-10-22T09:18:06.382Z,14.43
2022-10-22T09:28:10.241Z,14.61
2022-10-22T09:38:15.865Z,14.84
2022-10-22T09:48:28.614Z,15.35
2022-10-22T09:58:41.452Z,15.53
2022-10-22T10:08:43.420Z,15.03
2022-10-22T10:19:10.329Z,14.28
2022-10-22T10:29:24.498Z,13.68
2022-10-22T10:39:50.937Z,13.44
2022-10-22T10:50:01.045Z,13.40
2022-10-22T11:00:12.041Z,13.54
2022-10-22T11:10:30.280Z,13.65
2022-10-22T11:20:39.162Z,13.68
2022-10-22T11:30:45.646Z,14.17
2022-10-22T11:41:15.050Z,14.35
2022-10-22T11:51:39.291Z,14.29
2022-10-22T12:01:43.494Z,14.22
2022-10-22T12:11:49.799Z,14.52
2022-10-22T12:22:04.825Z,14.60
2022-10-22T12:32:07.738Z,14.64
2022-10-22T12:42:16.482Z,14.56
2022-10-22T12:52:26.816Z,14.67
2022-10-22T13:02:29.839Z,14.54
2022-10-22T13:12:36.241Z,14.69
2022-10-22T13:22:40.800Z,14.80
2022-10-22T13:32:42.883Z,14.82
2022-10-22T13:42:45.229Z,14.84
2022-10-22T13:52:55.728Z,14.47
2022-10-22T14:02:59.274Z,14.03
2022-10-22T14:13:01.347Z,13.97
2022-10-22T14:23:20.330Z,13.84
2022-10-22T14:33:31.951Z,13.66
2022-10-22T14:43:34.550Z,13.63
2022-10-22T14:53:37.004Z,13.46
2022-10-22T15:03:56.126Z,13.26
2022-10-22T15:13:59.632Z,13.21
2022-10-22T15:24:01.789Z,13.23
2022-10-22T15:34:03.801Z,13.09
2022-10-22T15:44:07.069Z,12.86
2022-10-22T15:54:17.365Z,12.80
2022-10-22T16:04:19.950Z,12.85
2022-10-22T16:14:24.242Z,12.78
2022-10-22T16:24:26.384Z,12.65
2022-10-22T16:34:28.676Z,12.69
2022-10-22T16:44:30.951Z,12.77
2022-10-22T16:54:33.333Z,12.69
2022-10-22T17:04:35.816Z,12.55
2022-10-22T17:14:38.294Z,12.62
2022-10-22T17:24:44.067Z,12.72
2022-10-22T17:34:46.025Z,12.71
2022-10-22T17:44:48.181Z,12.64
2022-10-22T17:54:51.858Z,12.71
2022-10-22T18:04:53.936Z,12.81
2022-10-22T18:14:56.231Z,12.77
2022-10-22T18:24:58.316Z,12.66
2022-10-22T18:35:00.544Z,12.73
2022-10-22T18:45:05.096Z,12.84
2022-10-22T18:55:07.602Z,12.80
2022-10-22T19:05:09.809Z,12.70
2022-10-22T19:15:12.030Z,12.74
2022-10-22T19:25:14.179Z,12.83
2022-10-22T19:35:17.740Z,12.79
2022-10-22T19:45:21.278Z,12.68
2022-10-22T19:55:24.388Z,12.72
2022-10-22T20:05:26.545Z,12.78
2022-10-22T20:15:29.161Z,12.74
2022-10-22T20:25:31.499Z,12.80
2022-10-22T20:35:33.573Z,12.83
2022-10-22T20:45:35.876Z,12.73
2022-10-22T20:55:38.025Z,12.63
2022-10-22T21:05:40.695Z,12.71
2022-10-22T21:15:42.955Z,12.82
2022-10-22T21:25:54.415Z,12.92
2022-10-22T21:35:57.517Z,12.89
2022-10-22T21:46:07.756Z,12.99
2022-10-22T21:56:21.063Z,13.09
2022-10-22T22:06:28.340Z,13.04
2022-10-22T22:16:35.578Z,13.09
2022-10-22T22:26:37.824Z,13.19
2022-10-22T22:36:49.458Z,13.12
2022-10-22T22:46:53.075Z,13.16
2022-10-22T22:56:55.076Z,13.21
2022-10-22T23:06:57.172Z,13.24
2022-10-22T23:16:59.309Z,13.16
2022-10-22T23:27:03.939Z,13.16
2022-10-22T23:37:06.574Z,13.24
2022-10-22T23:47:08.786Z,13.18
2022-10-22T23:57:11.273Z,13.21
